sensor_id;sensor_type;location;lat;lon;timestamp;temperature;humidity
7194;DHT22;3638;48.820;9.244;2023-04-24T00:03:50;11.90;99.90
7194;DHT22;3638;48.820;9.244;2023-04-24T00:11:12;12.00;99.90
7194;DHT22;3638;48.820;9.244;2023-04-24T00:13:39;12.00;99.90
7194;DHT22;3638;48.820;9.244;2023-04-24T00:16:06;12.10;99.90
7194;DHT22;3638;48.820;9.244;2023-04-24T00:21:02;12.10;99.90
7194;DHT22;3638;48.820;9.244;2023-04-24T00:25:56;12.10;99.90
7194;DHT22;3638;48.820;9.244;2023-04-24T00:28:23;9.50;99.90
7194;DHT22;3638;48.820;9.244;2023-04-24T00:35:45;12.10;99.90
7194;DHT22;3638;48.820;9.244;2023-04-24T00:38:13;12.10;99.90
7194;DHT22;3638;48.820;9.244;2023-04-24T00:43:08;12.20;99.90
7194;DHT22;3638;48.820;9.244;2023-04-24T00:48:02;12.10;99.90
7194;DHT22;3638;48.820;9.244;2023-04-24T00:55:26;12.10;99.90
7194;DHT22;3638;48.820;9.244;2023-04-24T00:57:53;12.10;99.90
7194;DHT22;3638;48.820;9.244;2023-04-24T01:02:48;12.10;99.90
7194;DHT22;3638;48.820;9.244;2023-04-24T01:05:15;12.10;99.90
7194;DHT22;3638;48.820;9.244;2023-04-24T01:07:45;12.20;99.90
7194;DHT22;3638;48.820;9.244;2023-04-24T01:10:14;12.10;99.90
7194;DHT22;3638;48.820;9.244;2023-04-24T01:12:44;12.10;99.90
7194;DHT22;3638;48.820;9.244;2023-04-24T01:15:11;12.10;99.90
7194;DHT22;3638;48.820;9.244;2023-04-24T01:17:38;12.10;99.90
7194;DHT22;3638;48.820;9.244;2023-04-24T01:20:05;12.20;99.90
7194;DHT22;3638;48.820;9.244;2023-04-24T01:22:35;12.20;99.90
7194;DHT22;3638;48.820;9.244;2023-04-24T01:27:30;12.20;99.90
7194;DHT22;3638;48.820;9.244;2023-04-24T01:29:58;12.20;99.90
7194;DHT22;3638;48.820;9.244;2023-04-24T01:37:20;12.20;99.90
7194;DHT22;3638;48.820;9.244;2023-04-24T01:39:49;12.20;99.90
7194;DHT22;3638;48.820;9.244;2023-04-24T01:42:16;12.20;99.90
7194;DHT22;3638;48.820;9.244;2023-04-24T01:44:43;12.10;99.90
7194;DHT22;3638;48.820;9.244;2023-04-24T01:54:33;12.00;99.90
7194;DHT22;3638;48.820;9.244;2023-04-24T01:57:01;12.00;99.90
7194;DHT22;3638;48.820;9.244;2023-04-24T02:14:14;11.80;99.90
7194;DHT22;3638;48.820;9.244;2023-04-24T02:16:41;11.80;99.90
7194;DHT22;3638;48.820;9.244;2023-04-24T02:19:08;11.70;99.90
7194;DHT22;3638;48.820;9.244;2023-04-24T02:24:02;11.70;99.90
7194;DHT22;3638;48.820;9.244;2023-04-24T02:26:29;11.70;99.90
7194;DHT22;3638;48.820;9.244;2023-04-24T02:31:25;11.70;99.90
7194;DHT22;3638;48.820;9.244;2023-04-24T02:33:52;11.80;99.90
7194;DHT22;3638;48.820;9.244;2023-04-24T02:36:19;11.90;99.90
7194;DHT22;3638;48.820;9.244;2023-04-24T02:43:40;11.90;99.90
7194;DHT22;3638;48.820;9.244;2023-04-24T02:46:07;11.80;99.90
7194;DHT22;3638;48.820;9.244;2023-04-24T02:48:36;11.90;99.90
7194;DHT22;3638;48.820;9.244;2023-04-24T02:51:03;11.90;99.90
7194;DHT22;3638;48.820;9.244;2023-04-24T02:53:30;11.80;99.90
7194;DHT22;3638;48.820;9.244;2023-04-24T02:55:57;11.70;99.90
7194;DHT22;3638;48.820;9.244;2023-04-24T02:58:24;11.50;99.90
7194;DHT22;3638;48.820;9.244;2023-04-24T03:00:53;11.30;99.90
7194;DHT22;3638;48.820;9.244;2023-04-24T03:03:20;11.30;99.90
7194;DHT22;3638;48.820;9.244;2023-04-24T03:05:49;11.10;99.90
7194;DHT22;3638;48.820;9.244;2023-04-24T03:08:17;11.10;99.90
7194;DHT22;3638;48.820;9.244;2023-04-24T03:10:44;11.10;99.90
7194;DHT22;3638;48.820;9.244;2023-04-24T03:15:38;11.00;99.90
7194;DHT22;3638;48.820;9.244;2023-04-24T03:23:00;11.00;99.90
7194;DHT22;3638;48.820;9.244;2023-04-24T03:25:28;11.00;99.90
7194;DHT22;3638;48.820;9.244;2023-04-24T03:30:22;10.90;99.90
7194;DHT22;3638;48.820;9.244;2023-04-24T03:32:49;10.90;99.90
7194;DHT22;3638;48.820;9.244;2023-04-24T03:40:11;10.80;99.90
7194;DHT22;3638;48.820;9.244;2023-04-24T03:42:38;10.80;99.90
7194;DHT22;3638;48.820;9.244;2023-04-24T03:45:06;10.90;99.90
7194;DHT22;3638;48.820;9.244;2023-04-24T03:50:02;11.00;99.90
7194;DHT22;3638;48.820;9.244;2023-04-24T03:52:29;10.90;99.90
7194;DHT22;3638;48.820;9.244;2023-04-24T03:57:24;10.80;99.90
7194;DHT22;3638;48.820;9.244;2023-04-24T03:59:51;10.80;99.90
7194;DHT22;3638;48.820;9.244;2023-04-24T04:02:18;10.70;99.90
7194;DHT22;3638;48.820;9.244;2023-04-24T04:09:40;10.70;99.90
7194;DHT22;3638;48.820;9.244;2023-04-24T04:14:35;10.80;99.90
7194;DHT22;3638;48.820;9.244;2023-04-24T04:21:56;10.90;99.90
7194;DHT22;3638;48.820;9.244;2023-04-24T04:29:21;11.00;99.90
7194;DHT22;3638;48.820;9.244;2023-04-24T04:31:50;11.10;99.90
7194;DHT22;3638;48.820;9.244;2023-04-24T04:34:17;11.10;99.90
7194;DHT22;3638;48.820;9.244;2023-04-24T04:36:44;11.10;99.90
7194;DHT22;3638;48.820;9.244;2023-04-24T04:39:11;11.20;99.90
7194;DHT22;3638;48.820;9.244;2023-04-24T04:41:39;11.10;99.90
7194;DHT22;3638;48.820;9.244;2023-04-24T04:44:07;11.10;99.90
7194;DHT22;3638;48.820;9.244;2023-04-24T04:46:34;11.00;99.90
7194;DHT22;3638;48.820;9.244;2023-04-24T04:49:04;11.10;99.90
7194;DHT22;3638;48.820;9.244;2023-04-24T04:51:31;11.10;99.90
7194;DHT22;3638;48.820;9.244;2023-04-24T04:58:52;10.90;99.90
7194;DHT22;3638;48.820;9.244;2023-04-24T05:01:19;10.90;99.90
7194;DHT22;3638;48.820;9.244;2023-04-24T05:06:15;10.70;99.90
7194;DHT22;3638;48.820;9.244;2023-04-24T05:08:42;10.80;99.90
7194;DHT22;3638;48.820;9.244;2023-04-24T05:11:09;10.80;99.90
7194;DHT22;3638;48.820;9.244;2023-04-24T05:16:03;10.70;99.90
7194;DHT22;3638;48.820;9.244;2023-04-24T05:20:58;10.90;99.90
7194;DHT22;3638;48.820;9.244;2023-04-24T05:23:26;11.00;99.90
7194;DHT22;3638;48.820;9.244;2023-04-24T05:30:47;10.90;99.90
7194;DHT22;3638;48.820;9.244;2023-04-24T05:33:14;10.80;99.90
7194;DHT22;3638;48.820;9.244;2023-04-24T05:40:40;11.00;99.90
7194;DHT22;3638;48.820;9.244;2023-04-24T05:43:07;11.10;99.90
7194;DHT22;3638;48.820;9.244;2023-04-24T05:45:33;11.20;99.90
7194;DHT22;3638;48.820;9.244;2023-04-24T05:50:28;11.20;99.90
7194;DHT22;3638;48.820;9.244;2023-04-24T05:52:55;11.10;99.90
7194;DHT22;3638;48.820;9.244;2023-04-24T06:00:20;11.40;99.90
7194;DHT22;3638;48.820;9.244;2023-04-24T06:02:47;11.30;99.90
7194;DHT22;3638;48.820;9.244;2023-04-24T06:05:14;15.70;99.90
7194;DHT22;3638;48.820;9.244;2023-04-24T06:07:41;11.50;99.90
7194;DHT22;3638;48.820;9.244;2023-04-24T06:10:09;11.60;99.90
7194;DHT22;3638;48.820;9.244;2023-04-24T06:15:06;11.80;99.90
7194;DHT22;3638;48.820;9.244;2023-04-24T06:20:01;11.70;99.90
7194;DHT22;3638;48.820;9.244;2023-04-24T06:22:30;11.60;99.90
7194;DHT22;3638;48.820;9.244;2023-04-24T06:24:56;11.80;99.90
7194;DHT22;3638;48.820;9.244;2023-04-24T06:29:50;13.10;99.90
7194;DHT22;3638;48.820;9.244;2023-04-24T06:32:21;14.00;99.90
7194;DHT22;3638;48.820;9.244;2023-04-24T06:34:49;14.60;99.90
7194;DHT22;3638;48.820;9.244;2023-04-24T06:37:16;15.00;99.90
7194;DHT22;3638;48.820;9.244;2023-04-24T06:42:10;15.30;99.90
7194;DHT22;3638;48.820;9.244;2023-04-24T06:44:37;15.30;99.90
7194;DHT22;3638;48.820;9.244;2023-04-24T06:49:35;15.40;99.90
7194;DHT22;3638;48.820;9.244;2023-04-24T06:54:30;15.60;99.90
7194;DHT22;3638;48.820;9.244;2023-04-24T06:56:57;15.90;99.90
7194;DHT22;3638;48.820;9.244;2023-04-24T06:59:26;16.00;99.90
7194;DHT22;3638;48.820;9.244;2023-04-24T07:01:53;16.10;99.90
7194;DHT22;3638;48.820;9.244;2023-04-24T07:04:20;15.70;99.90
7194;DHT22;3638;48.820;9.244;2023-04-24T07:06:48;16.10;99.90
7194;DHT22;3638;48.820;9.244;2023-04-24T07:09:16;16.30;99.90
7194;DHT22;3638;48.820;9.244;2023-04-24T07:11:44;16.30;99.90
7194;DHT22;3638;48.820;9.244;2023-04-24T07:14:11;15.70;99.90
7194;DHT22;3638;48.820;9.244;2023-04-24T07:19:05;14.90;99.90
7194;DHT22;3638;48.820;9.244;2023-04-24T07:21:32;14.70;99.90
7194;DHT22;3638;48.820;9.244;2023-04-24T07:24:00;14.40;99.90
7194;DHT22;3638;48.820;9.244;2023-04-24T07:26:29;14.00;99.90
7194;DHT22;3638;48.820;9.244;2023-04-24T07:28:56;13.60;99.90
7194;DHT22;3638;48.820;9.244;2023-04-24T07:31:24;13.70;99.90
7194;DHT22;3638;48.820;9.244;2023-04-24T07:33:51;13.50;99.90
7194;DHT22;3638;48.820;9.244;2023-04-24T07:36:18;13.50;99.90
7194;DHT22;3638;48.820;9.244;2023-04-24T07:38:45;13.30;99.90
7194;DHT22;3638;48.820;9.244;2023-04-24T07:41:13;13.60;99.90
7194;DHT22;3638;48.820;9.244;2023-04-24T07:43:41;13.70;99.90
7194;DHT22;3638;48.820;9.244;2023-04-24T07:48:36;16.90;99.90
7194;DHT22;3638;48.820;9.244;2023-04-24T07:51:03;14.00;99.90
7194;DHT22;3638;48.820;9.244;2023-04-24T07:55:57;14.30;99.90
7194;DHT22;3638;48.820;9.244;2023-04-24T07:58:25;14.30;99.90
7194;DHT22;3638;48.820;9.244;2023-04-24T08:00:52;14.50;99.90
7194;DHT22;3638;48.820;9.244;2023-04-24T08:03:19;14.70;99.90
7194;DHT22;3638;48.820;9.244;2023-04-24T08:08:14;15.00;99.90
7194;DHT22;3638;48.820;9.244;2023-04-24T08:10:41;14.40;99.90
7194;DHT22;3638;48.820;9.244;2023-04-24T08:13:07;14.10;99.90
7194;DHT22;3638;48.820;9.244;2023-04-24T08:15:38;13.90;99.90
7194;DHT22;3638;48.820;9.244;2023-04-24T08:20:32;14.50;99.90
7194;DHT22;3638;48.820;9.244;2023-04-24T08:22:59;14.90;99.90
7194;DHT22;3638;48.820;9.244;2023-04-24T08:32:49;15.50;99.90
7194;DHT22;3638;48.820;9.244;2023-04-24T08:35:16;15.80;99.90
7194;DHT22;3638;48.820;9.244;2023-04-24T08:37:43;16.00;99.90
7194;DHT22;3638;48.820;9.244;2023-04-24T08:40:13;16.30;99.90
7194;DHT22;3638;48.820;9.244;2023-04-24T08:42:41;16.30;99.90
7194;DHT22;3638;48.820;9.244;2023-04-24T08:45:10;16.00;99.60
7194;DHT22;3638;48.820;9.244;2023-04-24T08:47:38;16.40;99.90
7194;DHT22;3638;48.820;9.244;2023-04-24T08:50:08;16.60;99.90
7194;DHT22;3638;48.820;9.244;2023-04-24T08:52:36;15.90;99.90
7194;DHT22;3638;48.820;9.244;2023-04-24T08:57:31;15.50;99.90
7194;DHT22;3638;48.820;9.244;2023-04-24T08:59:59;15.40;99.90
7194;DHT22;3638;48.820;9.244;2023-04-24T09:02:27;14.80;99.90
7194;DHT22;3638;48.820;9.244;2023-04-24T09:04:56;14.40;99.90
7194;DHT22;3638;48.820;9.244;2023-04-24T09:07:25;14.50;99.90
7194;DHT22;3638;48.820;9.244;2023-04-24T09:09:54;14.80;99.90
7194;DHT22;3638;48.820;9.244;2023-04-24T09:12:21;15.00;99.90
7194;DHT22;3638;48.820;9.244;2023-04-24T09:14:49;14.70;99.90
7194;DHT22;3638;48.820;9.244;2023-04-24T09:17:16;14.30;99.90
7194;DHT22;3638;48.820;9.244;2023-04-24T09:19:43;14.10;99.90
7194;DHT22;3638;48.820;9.244;2023-04-24T09:22:11;13.80;99.90
7194;DHT22;3638;48.820;9.244;2023-04-24T09:24:40;13.40;99.90
7194;DHT22;3638;48.820;9.244;2023-04-24T09:27:07;13.20;99.90
7194;DHT22;3638;48.820;9.244;2023-04-24T09:32:18;12.90;99.90
7194;DHT22;3638;48.820;9.244;2023-04-24T09:34:47;12.70;99.90
7194;DHT22;3638;48.820;9.244;2023-04-24T09:37:27;12.40;99.90
7194;DHT22;3638;48.820;9.244;2023-04-24T09:40:09;12.30;99.90
7194;DHT22;3638;48.820;9.244;2023-04-24T09:42:40;12.50;99.90
7194;DHT22;3638;48.820;9.244;2023-04-24T09:45:10;12.60;99.90
7194;DHT22;3638;48.820;9.244;2023-04-24T09:47:38;12.90;99.90
7194;DHT22;3638;48.820;9.244;2023-04-24T09:50:15;13.20;99.90
7194;DHT22;3638;48.820;9.244;2023-04-24T09:52:44;13.70;99.90
7194;DHT22;3638;48.820;9.244;2023-04-24T09:55:16;13.60;99.90
7194;DHT22;3638;48.820;9.244;2023-04-24T09:57:52;13.60;99.90
7194;DHT22;3638;48.820;9.244;2023-04-24T10:00:23;13.90;99.90
7194;DHT22;3638;48.820;9.244;2023-04-24T10:02:54;13.90;99.90
7194;DHT22;3638;48.820;9.244;2023-04-24T10:05:28;13.70;99.90
7194;DHT22;3638;48.820;9.244;2023-04-24T10:07:57;13.60;99.90
7194;DHT22;3638;48.820;9.244;2023-04-24T10:10:28;13.50;99.90
7194;DHT22;3638;48.820;9.244;2023-04-24T10:15:22;13.70;99.90
7194;DHT22;3638;48.820;9.244;2023-04-24T10:17:50;15.00;99.90
7194;DHT22;3638;48.820;9.244;2023-04-24T10:20:20;13.80;99.90
7194;DHT22;3638;48.820;9.244;2023-04-24T10:22:49;14.10;99.90
7194;DHT22;3638;48.820;9.244;2023-04-24T10:25:20;14.20;99.90
7194;DHT22;3638;48.820;9.244;2023-04-24T10:27:50;14.40;99.90
7194;DHT22;3638;48.820;9.244;2023-04-24T10:30:17;14.50;98.70
7194;DHT22;3638;48.820;9.244;2023-04-24T10:32:46;14.30;98.00
7194;DHT22;3638;48.820;9.244;2023-04-24T10:35:14;14.40;99.70
7194;DHT22;3638;48.820;9.244;2023-04-24T10:37:44;14.30;98.70
7194;DHT22;3638;48.820;9.244;2023-04-24T10:40:17;14.00;98.50
7194;DHT22;3638;48.820;9.244;2023-04-24T10:42:49;13.90;99.10
7194;DHT22;3638;48.820;9.244;2023-04-24T10:45:19;13.70;99.20
7194;DHT22;3638;48.820;9.244;2023-04-24T10:47:56;13.60;98.70
7194;DHT22;3638;48.820;9.244;2023-04-24T10:50:26;13.50;99.00
7194;DHT22;3638;48.820;9.244;2023-04-24T10:52:54;13.40;99.70
7194;DHT22;3638;48.820;9.244;2023-04-24T10:55:45;13.40;99.90
7194;DHT22;3638;48.820;9.244;2023-04-24T10:58:14;13.50;99.80
7194;DHT22;3638;48.820;9.244;2023-04-24T11:00:43;13.40;99.90
7194;DHT22;3638;48.820;9.244;2023-04-24T11:03:24;13.50;99.90
7194;DHT22;3638;48.820;9.244;2023-04-24T11:05:55;13.60;99.20
7194;DHT22;3638;48.820;9.244;2023-04-24T11:08:25;13.70;99.10
7194;DHT22;3638;48.820;9.244;2023-04-24T11:10:58;13.70;98.50
7194;DHT22;3638;48.820;9.244;2023-04-24T11:16:35;13.80;98.80
7194;DHT22;3638;48.820;9.244;2023-04-24T11:19:06;14.00;99.40
7194;DHT22;3638;48.820;9.244;2023-04-24T11:21:41;13.90;99.10
7194;DHT22;3638;48.820;9.244;2023-04-24T11:24:32;14.10;99.20
7194;DHT22;3638;48.820;9.244;2023-04-24T11:27:12;14.00;97.90
7194;DHT22;3638;48.820;9.244;2023-04-24T11:29:49;14.20;98.70
7194;DHT22;3638;48.820;9.244;2023-04-24T11:32:26;14.50;97.60
7194;DHT22;3638;48.820;9.244;2023-04-24T11:34:56;14.20;97.90
7194;DHT22;3638;48.820;9.244;2023-04-24T11:37:26;14.10;97.40
7194;DHT22;3638;48.820;9.244;2023-04-24T11:39:55;14.20;97.40
7194;DHT22;3638;48.820;9.244;2023-04-24T11:42:24;14.30;97.80
7194;DHT22;3638;48.820;9.244;2023-04-24T11:44:54;14.40;97.50
7194;DHT22;3638;48.820;9.244;2023-04-24T11:47:28;14.20;97.40
7194;DHT22;3638;48.820;9.244;2023-04-24T11:52:24;14.10;97.90
7194;DHT22;3638;48.820;9.244;2023-04-24T11:54:52;13.90;98.10
7194;DHT22;3638;48.820;9.244;2023-04-24T11:57:19;13.90;99.90
7194;DHT22;3638;48.820;9.244;2023-04-24T11:59:47;13.60;99.90
7194;DHT22;3638;48.820;9.244;2023-04-24T12:02:22;13.30;99.90
7194;DHT22;3638;48.820;9.244;2023-04-24T12:04:50;13.60;99.90
7194;DHT22;3638;48.820;9.244;2023-04-24T12:07:17;13.80;99.90
7194;DHT22;3638;48.820;9.244;2023-04-24T12:09:46;14.00;99.90
7194;DHT22;3638;48.820;9.244;2023-04-24T12:12:15;14.20;99.90
7194;DHT22;3638;48.820;9.244;2023-04-24T12:14:44;14.30;99.90
7194;DHT22;3638;48.820;9.244;2023-04-24T12:17:13;14.30;99.30
7194;DHT22;3638;48.820;9.244;2023-04-24T12:19:46;14.30;99.20
7194;DHT22;3638;48.820;9.244;2023-04-24T12:22:14;14.30;98.90
7194;DHT22;3638;48.820;9.244;2023-04-24T12:25:01;14.00;99.40
7194;DHT22;3638;48.820;9.244;2023-04-24T12:27:31;13.80;99.90
7194;DHT22;3638;48.820;9.244;2023-04-24T12:30:01;13.60;99.90
7194;DHT22;3638;48.820;9.244;2023-04-24T12:32:29;13.60;99.90
7194;DHT22;3638;48.820;9.244;2023-04-24T12:34:57;13.70;99.90
7194;DHT22;3638;48.820;9.244;2023-04-24T12:37:26;13.70;99.80
7194;DHT22;3638;48.820;9.244;2023-04-24T12:39:59;13.60;99.70
7194;DHT22;3638;48.820;9.244;2023-04-24T12:42:27;13.70;99.90
7194;DHT22;3638;48.820;9.244;2023-04-24T12:44:58;13.60;99.80
7194;DHT22;3638;48.820;9.244;2023-04-24T12:47:26;13.60;99.70
7194;DHT22;3638;48.820;9.244;2023-04-24T12:52:22;13.60;99.90
7194;DHT22;3638;48.820;9.244;2023-04-24T12:54:52;13.50;99.90
7194;DHT22;3638;48.820;9.244;2023-04-24T13:04:44;13.40;99.90
7194;DHT22;3638;48.820;9.244;2023-04-24T13:07:12;13.10;99.90
7194;DHT22;3638;48.820;9.244;2023-04-24T13:09:41;12.80;99.90
7194;DHT22;3638;48.820;9.244;2023-04-24T13:12:09;12.50;99.90
7194;DHT22;3638;48.820;9.244;2023-04-24T13:14:36;12.30;99.90
7194;DHT22;3638;48.820;9.244;2023-04-24T13:17:04;12.30;99.90
7194;DHT22;3638;48.820;9.244;2023-04-24T13:19:35;12.30;99.90
7194;DHT22;3638;48.820;9.244;2023-04-24T13:22:03;12.70;99.90
7194;DHT22;3638;48.820;9.244;2023-04-24T13:24:30;13.00;99.90
7194;DHT22;3638;48.820;9.244;2023-04-24T13:26:59;13.00;99.90
7194;DHT22;3638;48.820;9.244;2023-04-24T13:29:26;13.30;99.90
7194;DHT22;3638;48.820;9.244;2023-04-24T13:31:54;13.40;99.90
7194;DHT22;3638;48.820;9.244;2023-04-24T13:34:21;13.60;99.90
7194;DHT22;3638;48.820;9.244;2023-04-24T13:36:49;13.70;99.90
7194;DHT22;3638;48.820;9.244;2023-04-24T13:39:16;13.80;99.90
7194;DHT22;3638;48.820;9.244;2023-04-24T13:41:43;13.80;99.90
7194;DHT22;3638;48.820;9.244;2023-04-24T13:44:14;13.70;99.90
7194;DHT22;3638;48.820;9.244;2023-04-24T13:49:10;13.40;99.90
7194;DHT22;3638;48.820;9.244;2023-04-24T13:51:38;13.50;99.90
7194;DHT22;3638;48.820;9.244;2023-04-24T13:54:06;13.50;99.90
7194;DHT22;3638;48.820;9.244;2023-04-24T13:56:33;13.60;99.90
7194;DHT22;3638;48.820;9.244;2023-04-24T14:01:28;13.10;99.90
7194;DHT22;3638;48.820;9.244;2023-04-24T14:03:56;12.80;99.90
7194;DHT22;3638;48.820;9.244;2023-04-24T14:06:23;12.70;99.90
7194;DHT22;3638;48.820;9.244;2023-04-24T14:08:50;12.60;99.90
7194;DHT22;3638;48.820;9.244;2023-04-24T14:11:17;12.90;99.90
7194;DHT22;3638;48.820;9.244;2023-04-24T14:13:45;13.10;99.90
7194;DHT22;3638;48.820;9.244;2023-04-24T14:18:41;13.50;99.90
7194;DHT22;3638;48.820;9.244;2023-04-24T14:21:08;13.70;99.90
7194;DHT22;3638;48.820;9.244;2023-04-24T14:23:34;13.80;99.90
7194;DHT22;3638;48.820;9.244;2023-04-24T14:26:02;13.80;99.90
7194;DHT22;3638;48.820;9.244;2023-04-24T14:28:28;13.90;99.90
7194;DHT22;3638;48.820;9.244;2023-04-24T14:30:55;14.20;99.90
7194;DHT22;3638;48.820;9.244;2023-04-24T14:33:22;14.20;99.90
7194;DHT22;3638;48.820;9.244;2023-04-24T14:35:50;14.20;99.90
7194;DHT22;3638;48.820;9.244;2023-04-24T14:48:07;14.10;99.90
7194;DHT22;3638;48.820;9.244;2023-04-24T14:53:03;13.90;99.90
7194;DHT22;3638;48.820;9.244;2023-04-24T14:55:30;13.90;99.90
7194;DHT22;3638;48.820;9.244;2023-04-24T14:57:58;13.90;99.90
7194;DHT22;3638;48.820;9.244;2023-04-24T15:00:25;13.80;99.90
7194;DHT22;3638;48.820;9.244;2023-04-24T15:02:52;13.70;99.90
7194;DHT22;3638;48.820;9.244;2023-04-24T15:05:20;13.60;99.90
7194;DHT22;3638;48.820;9.244;2023-04-24T15:07:48;13.70;99.90
7194;DHT22;3638;48.820;9.244;2023-04-24T15:10:16;13.70;99.90
7194;DHT22;3638;48.820;9.244;2023-04-24T15:12:44;13.60;99.90
7194;DHT22;3638;48.820;9.244;2023-04-24T15:15:11;13.50;99.90
7194;DHT22;3638;48.820;9.244;2023-04-24T15:17:38;13.30;99.90
7194;DHT22;3638;48.820;9.244;2023-04-24T15:20:07;13.10;99.90
7194;DHT22;3638;48.820;9.244;2023-04-24T15:22:35;13.10;99.90
7194;DHT22;3638;48.820;9.244;2023-04-24T15:25:02;13.10;99.90
7194;DHT22;3638;48.820;9.244;2023-04-24T15:27:40;13.40;99.90
7194;DHT22;3638;48.820;9.244;2023-04-24T15:30:09;13.40;99.90
7194;DHT22;3638;48.820;9.244;2023-04-24T15:32:36;13.40;99.90
7194;DHT22;3638;48.820;9.244;2023-04-24T15:35:04;13.40;99.90
7194;DHT22;3638;48.820;9.244;2023-04-24T15:37:32;13.30;99.90
7194;DHT22;3638;48.820;9.244;2023-04-24T15:44:54;12.20;99.90
7194;DHT22;3638;48.820;9.244;2023-04-24T15:47:21;12.20;99.90
7194;DHT22;3638;48.820;9.244;2023-04-24T16:02:08;12.30;99.90
7194;DHT22;3638;48.820;9.244;2023-04-24T16:04:37;12.40;99.90
7194;DHT22;3638;48.820;9.244;2023-04-24T16:07:04;12.50;99.90
7194;DHT22;3638;48.820;9.244;2023-04-24T16:09:31;12.50;99.90
7194;DHT22;3638;48.820;9.244;2023-04-24T16:11:57;12.50;99.90
7194;DHT22;3638;48.820;9.244;2023-04-24T16:14:24;12.40;99.90
7194;DHT22;3638;48.820;9.244;2023-04-24T16:16:52;12.20;99.90
7194;DHT22;3638;48.820;9.244;2023-04-24T16:19:21;12.30;99.90
7194;DHT22;3638;48.820;9.244;2023-04-24T16:24:16;12.40;99.90
7194;DHT22;3638;48.820;9.244;2023-04-24T16:26:43;12.40;99.90
7194;DHT22;3638;48.820;9.244;2023-04-24T16:29:10;12.30;99.90
7194;DHT22;3638;48.820;9.244;2023-04-24T16:31:36;16.60;99.90
7194;DHT22;3638;48.820;9.244;2023-04-24T16:34:03;12.40;99.90
7194;DHT22;3638;48.820;9.244;2023-04-24T16:36:32;12.40;99.90
7194;DHT22;3638;48.820;9.244;2023-04-24T16:38:58;12.40;99.90
7194;DHT22;3638;48.820;9.244;2023-04-24T16:43:53;12.50;99.90
7194;DHT22;3638;48.820;9.244;2023-04-24T16:48:47;12.50;99.90
7194;DHT22;3638;48.820;9.244;2023-04-24T16:51:14;12.50;99.90
7194;DHT22;3638;48.820;9.244;2023-04-24T16:53:43;12.40;99.90
7194;DHT22;3638;48.820;9.244;2023-04-24T16:58:38;12.30;99.90
7194;DHT22;3638;48.820;9.244;2023-04-24T17:01:05;12.40;99.90
7194;DHT22;3638;48.820;9.244;2023-04-24T17:03:32;12.50;99.90
7194;DHT22;3638;48.820;9.244;2023-04-24T17:05:59;12.50;99.90
7194;DHT22;3638;48.820;9.244;2023-04-24T17:10:56;12.50;99.90
7194;DHT22;3638;48.820;9.244;2023-04-24T17:18:17;12.40;99.90
7194;DHT22;3638;48.820;9.244;2023-04-24T17:20:44;12.50;99.90
7194;DHT22;3638;48.820;9.244;2023-04-24T17:25:38;12.80;99.90
7194;DHT22;3638;48.820;9.244;2023-04-24T17:28:14;12.80;99.90
7194;DHT22;3638;48.820;9.244;2023-04-24T17:30:43;12.90;99.90
7194;DHT22;3638;48.820;9.244;2023-04-24T17:33:10;13.00;99.90
7194;DHT22;3638;48.820;9.244;2023-04-24T17:38:04;12.90;99.90
7194;DHT22;3638;48.820;9.244;2023-04-24T17:40:31;12.80;99.90
7194;DHT22;3638;48.820;9.244;2023-04-24T17:42:58;12.70;99.90
7194;DHT22;3638;48.820;9.244;2023-04-24T17:45:26;12.60;99.90
7194;DHT22;3638;48.820;9.244;2023-04-24T17:47:53;12.50;99.90
7194;DHT22;3638;48.820;9.244;2023-04-24T17:50:21;12.40;99.90
7194;DHT22;3638;48.820;9.244;2023-04-24T17:52:48;12.30;99.90
7194;DHT22;3638;48.820;9.244;2023-04-24T17:57:42;12.30;99.90
7194;DHT22;3638;48.820;9.244;2023-04-24T18:00:10;12.20;99.90
7194;DHT22;3638;48.820;9.244;2023-04-24T18:02:39;12.10;99.90
7194;DHT22;3638;48.820;9.244;2023-04-24T18:05:06;12.20;99.90
7194;DHT22;3638;48.820;9.244;2023-04-24T18:10:00;12.00;99.90
7194;DHT22;3638;48.820;9.244;2023-04-24T18:12:27;12.00;99.90
7194;DHT22;3638;48.820;9.244;2023-04-24T18:14:53;11.90;99.90
7194;DHT22;3638;48.820;9.244;2023-04-24T18:17:20;12.00;99.90
7194;DHT22;3638;48.820;9.244;2023-04-24T18:19:49;12.00;99.90
7194;DHT22;3638;48.820;9.244;2023-04-24T18:22:16;12.00;99.90
7194;DHT22;3638;48.820;9.244;2023-04-24T18:24:43;12.00;99.90
7194;DHT22;3638;48.820;9.244;2023-04-24T18:27:09;11.90;99.90
7194;DHT22;3638;48.820;9.244;2023-04-24T18:29:36;11.90;99.90
7194;DHT22;3638;48.820;9.244;2023-04-24T18:32:03;11.80;99.90
7194;DHT22;3638;48.820;9.244;2023-04-24T18:34:31;11.80;99.90
7194;DHT22;3638;48.820;9.244;2023-04-24T18:36:59;11.80;99.90
7194;DHT22;3638;48.820;9.244;2023-04-24T18:39:25;11.80;99.90
7194;DHT22;3638;48.820;9.244;2023-04-24T18:41:53;11.90;99.90
7194;DHT22;3638;48.820;9.244;2023-04-24T18:44:20;11.80;99.90
7194;DHT22;3638;48.820;9.244;2023-04-24T18:46:46;11.80;99.90
7194;DHT22;3638;48.820;9.244;2023-04-24T18:49:13;11.70;99.90
7194;DHT22;3638;48.820;9.244;2023-04-24T18:54:09;11.70;99.90
7194;DHT22;3638;48.820;9.244;2023-04-24T18:56:36;11.70;99.90
7194;DHT22;3638;48.820;9.244;2023-04-24T18:59:02;11.70;99.90
7194;DHT22;3638;48.820;9.244;2023-04-24T19:01:30;11.60;99.90
7194;DHT22;3638;48.820;9.244;2023-04-24T19:03:57;11.40;99.90
7194;DHT22;3638;48.820;9.244;2023-04-24T19:06:24;11.40;99.90
7194;DHT22;3638;48.820;9.244;2023-04-24T19:08:51;11.30;99.90
7194;DHT22;3638;48.820;9.244;2023-04-24T19:11:19;11.20;99.90
7194;DHT22;3638;48.820;9.244;2023-04-24T19:13:46;11.20;99.90
7194;DHT22;3638;48.820;9.244;2023-04-24T19:18:40;11.10;99.90
7194;DHT22;3638;48.820;9.244;2023-04-24T19:21:08;11.10;99.90
7194;DHT22;3638;48.820;9.244;2023-04-24T19:23:35;11.00;99.90
7194;DHT22;3638;48.820;9.244;2023-04-24T19:26:04;11.00;99.90
7194;DHT22;3638;48.820;9.244;2023-04-24T19:28:32;10.90;99.90
7194;DHT22;3638;48.820;9.244;2023-04-24T19:33:26;10.90;99.90
7194;DHT22;3638;48.820;9.244;2023-04-24T19:35:53;10.80;99.90
7194;DHT22;3638;48.820;9.244;2023-04-24T19:40:48;10.90;99.90
7194;DHT22;3638;48.820;9.244;2023-04-24T19:43:14;10.90;99.90
7194;DHT22;3638;48.820;9.244;2023-04-24T19:45:43;10.80;99.90
7194;DHT22;3638;48.820;9.244;2023-04-24T19:48:09;10.80;99.90
7194;DHT22;3638;48.820;9.244;2023-04-24T19:50:36;10.80;99.90
7194;DHT22;3638;48.820;9.244;2023-04-24T19:53:03;10.70;99.90
7194;DHT22;3638;48.820;9.244;2023-04-24T19:55:31;10.70;99.90
7194;DHT22;3638;48.820;9.244;2023-04-24T20:00:25;10.70;99.90
7194;DHT22;3638;48.820;9.244;2023-04-24T20:02:54;10.60;99.90
7194;DHT22;3638;48.820;9.244;2023-04-24T20:05:21;10.60;99.90
7194;DHT22;3638;48.820;9.244;2023-04-24T20:07:48;10.50;99.90
7194;DHT22;3638;48.820;9.244;2023-04-24T20:10:15;10.60;99.90
7194;DHT22;3638;48.820;9.244;2023-04-24T20:12:42;10.50;99.90
7194;DHT22;3638;48.820;9.244;2023-04-24T20:15:10;10.50;99.90
7194;DHT22;3638;48.820;9.244;2023-04-24T20:17:37;10.40;99.90
7194;DHT22;3638;48.820;9.244;2023-04-24T20:20:07;10.30;99.90
7194;DHT22;3638;48.820;9.244;2023-04-24T20:22:35;10.20;99.90
7194;DHT22;3638;48.820;9.244;2023-04-24T20:25:04;10.20;99.90
7194;DHT22;3638;48.820;9.244;2023-04-24T20:29:59;10.10;99.90
7194;DHT22;3638;48.820;9.244;2023-04-24T20:32:26;10.10;99.90
7194;DHT22;3638;48.820;9.244;2023-04-24T20:37:21;9.90;99.90
7194;DHT22;3638;48.820;9.244;2023-04-24T20:39:49;9.90;99.90
7194;DHT22;3638;48.820;9.244;2023-04-24T20:42:16;9.80;99.90